Time;durP1;ratioP1;P1;durP2;ratioP2;P2;SDS_P1;SDS_P2;PMS_P1;PMS_P2;Temp;Humidity;BMP_temperature;BMP_pressure;BME280_temperature;BME280_humidity;BME280_pressure;Samples;Min_cycle;Max_cycle;Signal;HPM_P1;HPM_P2
2022/08/18 00:01:40;;;;;;;6.27;5.20;;;22.10;95.50;;;22.94;90.55;97738.88;5064419;28;20488;-79
2022/08/18 00:04:11;;;;;;;9.13;6.03;;;22.00;95.60;;;22.87;91.29;97739.16;5061338;28;20533;-79
2022/08/18 00:07:01;;;;;;;7.07;5.30;;;22.00;95.60;;;22.80;91.62;97724.53;5064994;28;20531;-80
2022/08/18 00:09:30;;;;;;;6.60;5.47;;;21.90;95.90;;;22.80;92.44;97721.88;5065419;28;20467;-79
2022/08/18 00:12:04;;;;;;;9.67;6.80;;;21.80;95.90;;;22.78;92.27;97724.00;5064451;28;20449;-79
2022/08/18 00:14:34;;;;;;;6.60;5.47;;;21.80;95.80;;;22.78;92.00;97726.66;5064986;28;20488;-79
2022/08/18 00:17:02;;;;;;;7.60;5.80;;;21.80;95.70;;;22.76;92.68;97726.16;5064048;28;20496;-79
2022/08/18 00:19:31;;;;;;;9.60;6.60;;;21.70;96.10;;;22.73;92.63;97734.69;5068522;28;20873;-80
2022/08/18 00:22:21;;;;;;;7.93;5.50;;;21.70;96.20;;;22.65;93.69;97729.88;5064775;28;21027;-79
2022/08/18 00:24:52;;;;;;;8.63;5.83;;;21.70;96.10;;;22.66;93.13;97729.63;5063166;28;20519;-79
2022/08/18 00:27:24;;;;;;;8.33;6.33;;;21.60;96.20;;;22.65;93.71;97730.69;5061477;28;20589;-80
2022/08/18 00:29:58;;;;;;;8.57;5.93;;;21.60;96.30;;;22.65;93.85;97735.22;5063921;28;20493;-80
2022/08/18 00:32:32;;;;;;;10.60;6.70;;;21.60;96.40;;;22.56;94.21;97746.44;5061766;28;20460;-79
2022/08/18 00:35:08;;;;;;;8.50;6.73;;;21.50;96.50;;;22.52;94.92;97739.28;5060269;28;21044;-80
2022/08/18 00:37:39;;;;;;;14.47;6.47;;;21.50;96.60;;;22.52;95.20;97748.06;5061046;28;20464;-79
2022/08/18 00:40:13;;;;;;;7.43;5.80;;;21.50;96.70;;;22.52;96.37;97734.75;5063025;28;20460;-80
2022/08/18 00:42:46;;;;;;;7.50;6.43;;;21.40;97.00;;;22.51;97.80;97733.13;5061112;28;20535;-79
2022/08/18 00:45:24;;;;;;;10.23;6.37;;;21.40;97.10;;;22.53;96.86;97733.66;5063760;28;20826;-79
2022/08/18 00:47:53;;;;;;;11.73;6.70;;;21.50;96.90;;;22.54;96.71;97723.78;5061994;28;20501;-79
2022/08/18 00:50:32;;;;;;;7.17;5.90;;;21.50;97.00;;;22.53;96.89;97730.19;5058632;28;21332;-79
2022/08/18 00:53:09;;;;;;;10.73;6.13;;;21.50;96.80;;;22.53;97.00;97733.66;5061337;28;20468;-79
2022/08/18 00:55:44;;;;;;;7.43;5.67;;;21.50;96.90;;;22.54;96.52;97737.13;5064139;28;20460;-79
2022/08/18 00:58:29;;;;;;;13.20;6.13;;;21.50;96.80;;;22.54;96.17;97737.13;5064332;28;20469;-80
2022/08/18 01:01:03;;;;;;;7.80;6.70;;;21.60;96.70;;;22.51;96.82;97733.13;5061587;28;20619;-79
2022/08/18 01:03:38;;;;;;;10.63;6.27;;;21.50;97.00;;;22.50;97.42;97733.41;5063478;28;20484;-79
2022/08/18 01:06:17;;;;;;;8.33;6.00;;;21.40;96.90;;;22.42;97.50;97737.41;5063657;28;21039;-79
2022/08/18 01:08:49;;;;;;;10.27;6.70;;;21.40;96.90;;;22.41;97.54;97746.50;5062436;28;20475;-79
2022/08/18 01:11:18;;;;;;;8.03;6.57;;;21.40;96.90;;;22.41;97.60;97751.03;5058179;28;20500;-79
2022/08/18 01:13:47;;;;;;;7.03;6.10;;;21.40;96.90;;;22.40;97.54;97750.22;5058981;28;20463;-79
2022/08/18 01:22:01;;;;;;;11.20;7.03;;;21.30;97.10;;;22.28;98.72;97741.72;5062950;28;20492;-79
2022/08/18 01:27:24;;;;;;;10.20;6.67;;;21.30;97.30;;;22.22;99.76;97745.44;5059527;28;20456;-80
2022/08/18 01:29:53;;;;;;;10.23;7.23;;;21.20;97.50;;;22.23;99.83;97739.06;5062952;28;20473;-79
2022/08/18 01:32:23;;;;;;;10.60;7.07;;;21.30;97.20;;;22.23;99.89;97747.06;5061811;28;21184;-79
2022/08/18 01:34:53;;;;;;;9.70;5.20;;;21.30;97.60;;;22.21;100.00;97748.41;5062530;28;20526;-79
2022/08/18 01:37:25;;;;;;;9.40;6.03;;;21.20;97.40;;;22.16;100.00;97753.72;5060100;28;20517;-79
2022/08/18 01:39:55;;;;;;;10.23;5.80;;;21.20;97.60;;;22.13;100.00;97752.41;5063678;28;20468;-79
2022/08/18 01:42:45;;;;;;;10.07;6.63;;;21.10;97.60;;;22.14;100.00;97747.88;5061318;28;20480;-79
2022/08/18 01:45:19;;;;;;;10.83;6.67;;;21.10;97.70;;;22.08;100.00;97747.06;5060099;28;20468;-79
2022/08/18 01:47:49;;;;;;;8.33;6.80;;;21.10;97.60;;;22.08;100.00;97747.88;5060193;28;20460;-79
2022/08/18 01:50:18;;;;;;;8.50;6.20;;;21.10;97.80;;;22.08;100.00;97745.19;5062607;28;20461;-79
2022/08/18 01:52:47;;;;;;;8.73;6.57;;;21.00;97.80;;;22.08;100.00;97736.41;5062332;28;21024;-79
2022/08/18 01:55:17;;;;;;;8.87;6.93;;;21.10;97.70;;;22.00;100.00;97744.97;5061318;28;20464;-79
2022/08/18 01:57:46;;;;;;;7.60;6.73;;;21.10;97.60;;;21.94;100.00;97740.69;5062676;28;20522;-80
2022/08/18 02:00:18;;;;;;;14.70;8.00;;;21.10;97.60;;;21.90;100.00;97732.44;5062907;28;20460;-79
2022/08/18 02:02:48;;;;;;;7.27;6.37;;;20.90;98.00;;;21.88;100.00;97728.41;5059952;28;20535;-79
2022/08/18 02:05:36;;;;;;;9.87;6.87;;;20.90;98.20;;;21.89;100.00;97724.69;5061674;28;20495;-79
2022/08/18 02:08:06;;;;;;;10.67;7.03;;;20.90;98.20;;;21.86;100.00;97731.34;5061351;28;20530;-79
2022/08/18 02:10:37;;;;;;;8.70;6.97;;;20.90;98.50;;;21.86;100.00;97736.69;5058387;28;20614;-79
2022/08/18 02:13:06;;;;;;;7.50;6.10;;;20.90;98.20;;;21.83;100.00;97733.75;5059548;28;20810;-79
2022/08/18 02:15:36;;;;;;;10.17;7.20;;;20.90;98.40;;;21.83;100.00;97739.06;5060485;28;20971;-79
2022/08/18 02:18:15;;;;;;;9.37;6.40;;;20.90;98.40;;;21.82;100.00;97740.13;5060324;28;20580;-79
2022/08/18 02:21:10;;;;;;;11.93;7.20;;;20.90;98.30;;;21.83;100.00;97739.06;5061672;28;20477;-79
2022/08/18 02:23:40;;;;;;;8.30;6.43;;;20.80;98.20;;;21.80;100.00;97740.38;5062114;28;20451;-79
2022/08/18 02:26:22;;;;;;;10.80;7.80;;;20.80;98.40;;;21.79;100.00;97738.00;5065139;28;20463;-79
2022/08/18 02:28:52;;;;;;;8.10;6.70;;;20.80;98.40;;;21.78;100.00;97733.75;5060022;28;21174;-79
2022/08/18 02:31:25;;;;;;;9.20;6.47;;;20.80;98.40;;;21.77;100.00;97729.47;5059526;28;20590;-79
2022/08/18 02:33:55;;;;;;;8.27;6.77;;;20.80;98.50;;;21.79;100.00;97722.03;5059756;28;20853;-79
2022/08/18 02:36:25;;;;;;;9.60;7.00;;;20.90;98.30;;;21.78;100.00;97723.91;5059560;28;20569;-79
2022/08/18 02:38:54;;;;;;;9.00;7.47;;;20.80;98.50;;;21.75;100.00;97726.28;5060383;28;20500;-79
2022/08/18 02:41:30;;;;;;;10.53;7.60;;;20.80;98.60;;;21.72;100.00;97726.81;5060183;28;20471;-79
2022/08/18 02:43:58;;;;;;;7.70;6.23;;;20.70;98.60;;;21.69;100.00;97728.16;5061551;28;20946;-79
2022/08/18 02:46:29;;;;;;;10.03;6.47;;;20.80;98.60;;;21.66;100.00;97734.00;5060543;28;20471;-79
2022/08/18 02:49:00;;;;;;;7.63;6.50;;;20.70;98.50;;;21.67;100.00;97740.91;5058115;28;21212;-79
2022/08/18 02:51:28;;;;;;;9.37;6.87;;;20.70;98.60;;;21.66;100.00;97736.66;5060973;28;20533;-79
2022/08/18 02:53:59;;;;;;;9.73;6.70;;;20.70;98.70;;;21.67;100.00;97734.78;5061257;28;20503;-79
2022/08/18 02:56:31;;;;;;;8.20;6.57;;;20.70;98.80;;;21.64;100.00;97746.78;5061727;28;20897;-79
2022/08/18 02:59:13;;;;;;;8.00;6.63;;;20.70;98.80;;;21.62;100.00;97742.78;5062701;28;20468;-80
2022/08/18 03:01:46;;;;;;;8.97;7.40;;;20.60;98.80;;;21.63;100.00;97744.38;5060541;28;21115;-80
2022/08/18 03:04:20;;;;;;;8.17;6.17;;;20.60;98.80;;;21.64;100.00;97740.66;5060297;28;20440;-80
2022/08/18 03:06:59;;;;;;;8.30;7.03;;;20.60;98.90;;;21.63;100.00;97739.84;5061397;28;20939;-80
2022/08/18 03:09:30;;;;;;;7.80;5.90;;;20.70;98.80;;;21.63;100.00;97742.50;5060880;28;20484;-80
2022/08/18 03:12:00;;;;;;;11.10;6.87;;;20.70;98.90;;;21.64;100.00;97745.97;5059962;28;20473;-85
2022/08/18 03:14:30;;;;;;;7.63;6.70;;;20.60;98.90;;;21.62;100.00;97738.28;5060482;28;20460;-81
2022/08/18 03:17:00;;;;;;;9.10;6.57;;;20.60;98.90;;;21.63;100.00;97739.03;5059814;28;20480;-83
2022/08/18 03:19:29;;;;;;;24.50;15.40;;;20.60;98.80;;;21.61;100.00;97738.53;5060931;28;20816;-82
2022/08/18 03:22:00;;;;;;;9.17;6.90;;;20.60;98.90;;;21.62;100.00;97732.94;5062685;28;20534;-82
2022/08/18 03:24:32;;;;;;;8.13;6.83;;;20.60;99.00;;;21.66;100.00;97741.19;5057507;28;20467;-82
2022/08/18 03:27:06;;;;;;;8.80;6.73;;;20.60;99.00;;;21.67;100.00;97740.13;5061699;28;20515;-81
2022/08/18 03:29:36;;;;;;;9.07;6.90;;;20.60;99.10;;;21.68;100.00;97739.06;5059548;28;20465;-81
2022/08/18 03:32:08;;;;;;;11.80;6.63;;;20.60;99.50;;;21.68;100.00;97733.75;5058353;28;20472;-82
2022/08/18 03:34:37;;;;;;;10.07;6.67;;;20.60;99.10;;;21.67;100.00;97734.78;5055694;28;20554;-81
2022/08/18 03:37:06;;;;;;;8.10;6.63;;;20.70;98.90;;;21.66;100.00;97736.66;5066039;28;20545;-82
2022/08/18 03:39:36;;;;;;;15.43;11.30;;;20.70;99.10;;;21.67;100.00;97729.47;5064117;28;20471;-85
2022/08/18 03:42:07;;;;;;;9.30;6.63;;;20.60;99.20;;;21.66;100.00;97727.91;5062343;28;21002;-84
2022/08/18 03:44:36;;;;;;;11.30;6.83;;;20.60;99.30;;;21.64;100.00;97730.81;5062187;28;20553;-82
2022/08/18 03:47:10;;;;;;;11.03;7.57;;;20.60;99.20;;;21.62;100.00;97732.16;5067058;28;20464;-81
2022/08/18 03:49:40;;;;;;;13.50;7.07;;;20.60;99.40;;;21.62;100.00;97732.94;5066356;28;20482;-81
2022/08/18 03:52:10;;;;;;;13.07;7.50;;;20.60;99.70;;;21.59;100.00;97723.59;5066315;28;20476;-82
2022/08/18 03:54:39;;;;;;;11.60;7.50;;;20.60;99.60;;;21.57;100.00;97731.06;5065871;28;20480;-82
2022/08/18 03:57:11;;;;;;;10.20;8.07;;;20.60;99.80;;;21.58;100.00;97732.69;5063911;28;20461;-85
2022/08/18 03:59:42;;;;;;;12.73;9.07;;;20.50;99.80;;;21.58;100.00;97732.69;5063566;28;20510;-82
2022/08/18 04:02:14;;;;;;;11.00;6.90;;;20.50;99.90;;;21.58;100.00;97738.00;5060350;28;20495;-81
2022/08/18 04:04:43;;;;;;;12.30;7.13;;;20.50;99.90;;;21.62;100.00;97742.78;5063429;28;21927;-84
2022/08/18 04:07:15;;;;;;;11.93;8.07;;;20.50;99.90;;;21.62;100.00;97742.78;5062516;28;20459;-82
2022/08/18 04:09:45;;;;;;;14.57;8.33;;;20.60;99.80;;;21.57;100.00;97741.72;5063973;28;20472;-80
2022/08/18 04:12:16;;;;;;;10.20;7.57;;;20.60;99.90;;;21.61;100.00;97741.19;5063603;28;21005;-80
2022/08/18 04:14:49;;;;;;;13.93;8.33;;;20.50;99.90;;;21.59;100.00;97741.44;5066551;28;20544;-81
2022/08/18 04:17:23;;;;;;;10.60;8.30;;;20.60;99.90;;;21.61;100.00;97738.53;5064889;28;20456;-81
2022/08/18 04:19:53;;;;;;;11.20;7.50;;;20.50;99.90;;;21.61;100.00;97738.53;5065752;28;20439;-81
2022/08/18 04:22:23;;;;;;;12.43;7.57;;;20.60;99.90;;;21.61;100.00;97741.19;5066114;28;20444;-81
2022/08/18 04:24:54;;;;;;;11.13;8.43;;;20.60;99.90;;;21.59;100.00;97739.56;5066799;28;20472;-81
2022/08/18 04:27:28;;;;;;;9.37;7.87;;;20.60;99.90;;;21.59;100.00;97733.44;5065501;28;20445;-86
2022/08/18 04:29:58;;;;;;;8.97;7.80;;;20.60;99.90;;;21.56;100.00;97731.31;5070058;28;20535;-80
2022/08/18 04:32:27;;;;;;;12.47;8.77;;;20.60;99.90;;;21.56;100.00;97732.13;5067172;28;20452;-80
2022/08/18 04:34:58;;;;;;;10.27;8.20;;;20.50;99.90;;;21.57;100.00;97732.94;5067452;28;20531;-81
2022/08/18 04:37:31;;;;;;;12.43;8.20;;;20.50;99.90;;;21.56;100.00;97737.44;5062238;28;20460;-80
2022/08/18 04:40:10;;;;;;;12.23;7.93;;;20.50;99.90;;;21.55;100.00;97738.50;5062139;28;20459;-79
2022/08/18 04:42:41;;;;;;;9.57;7.80;;;20.60;99.90;;;21.53;100.00;97735.31;5066035;28;20563;-79
2022/08/18 04:45:11;;;;;;;8.70;7.77;;;20.50;99.90;;;21.52;100.00;97733.72;5064672;28;20467;-79
2022/08/18 04:47:42;;;;;;;10.77;8.57;;;20.50;99.90;;;21.53;100.00;97737.97;5062858;28;20448;-80
2022/08/18 04:50:12;;;;;;;12.07;9.27;;;20.60;99.90;;;21.50;100.00;97735.84;5068098;28;20257;-80
2022/08/18 04:55:29;;;;;;;9.60;8.00;;;20.60;99.90;;;21.44;100.00;97736.13;5067799;28;20533;-80
2022/08/18 04:58:00;;;;;;;9.63;8.10;;;20.50;99.90;;;21.39;100.00;97746.75;5067933;28;20440;-79
2022/08/18 05:00:29;;;;;;;10.87;8.30;;;20.50;99.90;;;21.36;100.00;97741.94;5066934;28;20511;-81
2022/08/18 05:02:57;;;;;;;10.67;8.47;;;20.40;99.90;;;21.33;100.00;97745.94;5067725;28;20484;-79
2022/08/18 05:05:27;;;;;;;12.70;8.43;;;20.50;99.90;;;21.35;100.00;97748.31;5066537;28;20453;-79
2022/08/18 05:07:56;;;;;;;14.07;8.90;;;20.40;99.90;;;21.30;100.00;97743.81;5065641;28;20468;-80
2022/08/18 05:10:26;;;;;;;9.43;8.10;;;20.40;99.90;;;21.32;100.00;97747.00;5066352;28;21107;-80
2022/08/18 05:12:54;;;;;;;12.67;8.97;;;20.40;99.90;;;21.30;100.00;97757.09;5065860;28;20485;-79
2022/08/18 05:15:25;;;;;;;14.00;7.90;;;20.40;99.90;;;21.29;100.00;97755.50;5066427;28;20472;-79
2022/08/18 05:17:55;;;;;;;10.87;7.83;;;20.30;99.90;;;21.30;100.00;97759.78;5066806;28;20483;-80
2022/08/18 05:20:25;;;;;;;10.87;8.63;;;20.30;99.90;;;21.30;100.00;97764.28;5064268;28;20884;-79
2022/08/18 05:22:56;;;;;;;11.97;8.40;;;20.20;99.90;;;21.31;100.00;97769.31;5064556;28;20491;-80
2022/08/18 05:25:28;;;;;;;9.43;7.93;;;20.30;99.90;;;21.32;100.00;97775.44;5066316;28;20540;-80
2022/08/18 05:27:56;;;;;;;12.23;8.00;;;20.30;99.90;;;21.31;100.00;97779.19;5067335;28;20950;-79
2022/08/18 05:30:26;;;;;;;9.13;7.30;;;20.30;99.90;;;21.27;100.00;97784.25;5066156;28;20943;-79
2022/08/18 05:32:55;;;;;;;9.50;7.80;;;20.30;99.90;;;21.27;100.00;97789.56;5065004;28;20449;-80
2022/08/18 05:35:33;;;;;;;12.70;8.37;;;20.30;99.90;;;21.23;100.00;97785.00;5065236;28;20467;-80
2022/08/18 05:38:25;;;;;;;9.47;7.80;;;20.30;99.90;;;21.23;100.00;97783.16;5064716;28;20871;-79
2022/08/18 05:41:10;;;;;;;11.13;7.30;;;20.30;99.90;;;21.23;100.00;97788.47;5061983;28;20835;-80
2022/08/18 05:43:45;;;;;;;9.43;7.70;;;20.40;99.90;;;21.22;100.00;97786.88;5063574;28;20486;-80
2022/08/18 05:46:27;;;;;;;8.33;7.40;;;20.30;99.90;;;21.23;100.00;97787.66;5066844;28;20543;-80
2022/08/18 05:48:58;;;;;;;11.90;8.50;;;20.20;99.90;;;21.24;100.00;97795.38;5066084;28;20471;-80
2022/08/18 05:51:34;;;;;;;11.70;8.27;;;20.30;99.90;;;21.24;100.00;97795.38;5064483;28;20857;-80
2022/08/18 05:56:58;;;;;;;10.73;8.83;;;20.20;99.90;;;21.20;100.00;97797.00;5066006;28;20506;-80
2022/08/18 05:59:35;;;;;;;10.30;8.60;;;20.20;99.90;;;21.19;100.00;97798.03;5064838;28;20440;-80
2022/08/18 06:02:15;;;;;;;13.37;8.47;;;20.20;99.90;;;21.21;100.00;97801.22;5067007;28;20513;-79
2022/08/18 06:04:51;;;;;;;10.90;7.93;;;20.20;99.90;;;21.20;100.00;97793.53;5065259;28;20487;-80
2022/08/18 06:07:31;;;;;;;11.13;8.60;;;20.20;99.90;;;21.24;100.00;97795.38;5064698;28;20493;-79
2022/08/18 06:10:02;;;;;;;23.93;8.40;;;20.30;99.90;;;21.22;100.00;97792.19;5064148;28;20468;-80
2022/08/18 06:12:35;;;;;;;13.33;8.90;;;20.30;99.90;;;21.19;100.00;97792.72;5064783;28;20522;-80
2022/08/18 06:15:18;;;;;;;10.93;8.50;;;20.30;99.90;;;21.19;100.00;97792.72;5065127;28;20570;-80
2022/08/18 06:18:15;;;;;;;9.10;7.90;;;20.30;99.90;;;21.19;100.00;97792.72;5065190;28;20476;-80
2022/08/18 06:21:10;;;;;;;11.50;7.93;;;20.30;99.90;;;21.22;100.00;97781.56;5064925;28;20481;-80
2022/08/18 06:23:50;;;;;;;10.00;8.50;;;20.20;99.90;;;21.22;100.00;97773.56;5065987;28;20970;-80
2022/08/18 06:26:33;;;;;;;11.40;8.70;;;20.30;99.90;;;21.21;100.00;97779.16;5065085;28;20663;-80
2022/08/18 06:29:23;;;;;;;11.67;8.43;;;20.20;99.90;;;21.22;100.00;97768.25;5064353;28;20452;-80
2022/08/18 06:32:04;;;;;;;9.33;7.73;;;20.30;99.90;;;21.26;100.00;97771.19;5065297;28;20558;-80
2022/08/18 06:34:47;;;;;;;11.10;8.77;;;20.30;99.90;;;21.29;100.00;97774.13;5065282;28;20449;-80
2022/08/18 06:37:27;;;;;;;12.10;9.57;;;20.40;99.90;;;21.27;100.00;97772.78;5064132;28;20877;-78
2022/08/18 06:39:56;;;;;;;16.60;11.50;;;20.40;99.90;;;21.27;100.00;97778.91;5064277;28;20465;-77
2022/08/18 06:42:29;;;;;;;12.37;9.67;;;20.50;99.90;;;21.29;100.00;97771.47;5063849;28;21042;-80
2022/08/18 06:45:10;;;;;;;12.80;9.50;;;20.40;99.90;;;21.32;100.00;97776.25;5062574;28;20579;-80
2022/08/18 06:47:54;;;;;;;13.27;9.90;;;20.40;99.90;;;21.36;100.00;97782.66;5066518;28;20436;-80
2022/08/18 06:50:33;;;;;;;10.57;8.77;;;20.50;99.90;;;21.40;100.00;97789.06;5063127;28;20459;-80
2022/08/18 06:53:06;;;;;;;10.13;8.43;;;20.60;99.90;;;21.43;100.00;97793.84;5064405;28;20444;-80
2022/08/18 06:55:55;;;;;;;16.70;9.70;;;20.50;99.90;;;21.47;100.00;97794.94;5064800;28;20445;-80
2022/08/18 06:58:30;;;;;;;12.77;9.00;;;20.50;99.90;;;21.50;100.00;97790.94;5062545;28;20950;-80
2022/08/18 07:01:05;;;;;;;10.90;8.20;;;20.50;99.90;;;21.50;100.00;97788.28;5064934;28;20448;-80
2022/08/18 07:03:53;;;;;;;11.10;8.30;;;20.60;99.90;;;21.51;100.00;97795.19;5064963;28;20939;-80
2022/08/18 07:06:31;;;;;;;11.87;8.20;;;20.60;99.90;;;21.53;100.00;97799.19;5064856;28;21009;-79
2022/08/18 07:09:22;;;;;;;10.80;8.10;;;20.70;99.90;;;21.55;100.00;97798.94;5064630;28;20447;-80
2022/08/18 07:12:06;;;;;;;16.70;11.67;;;20.70;99.90;;;21.49;100.00;97798.13;5067816;28;20841;-80
2022/08/18 07:14:45;;;;;;;14.93;11.43;;;20.60;99.90;;;21.51;100.00;97803.19;5068815;28;20484;-80
2022/08/18 07:17:23;;;;;;;14.90;9.83;;;20.60;99.90;;;21.52;100.00;97810.88;5068666;28;20513;-80
2022/08/18 07:20:23;;;;;;;15.57;10.60;;;20.70;99.90;;;21.54;100.00;97806.13;5068539;28;20456;-79
2022/08/18 07:22:57;;;;;;;14.50;11.17;;;20.70;99.90;;;21.57;100.00;97810.91;5069016;28;20547;-80
2022/08/18 07:25:35;;;;;;;16.50;10.90;;;20.80;99.90;;;21.58;100.00;97807.19;5067954;28;20497;-73
2022/08/18 07:28:04;;;;;;;16.23;12.90;;;20.80;99.90;;;21.63;100.00;97808.25;5067521;28;20437;-76
2022/08/18 07:30:37;;;;;;;21.53;16.30;;;20.80;99.90;;;21.66;100.00;97807.75;5069901;28;20505;-76
2022/08/18 07:33:23;;;;;;;21.27;15.70;;;20.80;99.90;;;21.68;100.00;97818.91;5068094;28;20447;-80
2022/08/18 07:35:58;;;;;;;19.13;11.37;;;20.80;99.90;;;21.71;100.00;97816.53;5068167;28;21002;-80
2022/08/18 07:38:38;;;;;;;13.10;10.23;;;20.80;99.90;;;21.74;100.00;97820.53;5067166;28;20452;-80
2022/08/18 07:41:19;;;;;;;19.43;13.20;;;20.80;99.90;;;21.79;100.00;97812.56;5068662;28;20952;-79
2022/08/18 07:44:05;;;;;;;24.77;17.77;;;20.90;99.90;;;21.80;100.00;97803.47;5061021;28;20502;-80
2022/08/18 07:46:54;;;;;;;21.57;14.17;;;20.90;99.90;;;21.85;100.00;97808.81;5063692;28;21230;-79
2022/08/18 07:49:29;;;;;;;16.17;12.73;;;20.90;99.90;;;21.87;100.00;97802.16;5064801;28;20453;-80
2022/08/18 07:52:05;;;;;;;18.30;13.03;;;21.00;99.90;;;21.88;100.00;97794.97;5062539;28;20444;-80
2022/08/18 07:55:09;;;;;;;20.13;14.17;;;21.00;99.90;;;21.90;100.00;97787.56;5063135;28;20545;-80
2022/08/18 07:57:52;;;;;;;21.17;13.87;;;21.10;99.90;;;21.91;100.00;97789.16;5061477;28;20484;-80
2022/08/18 08:00:25;;;;;;;17.33;12.50;;;21.20;99.90;;;21.91;100.00;97784.63;5066494;28;21401;-80
2022/08/18 08:03:34;;;;;;;21.93;15.90;;;21.20;99.90;;;21.93;100.00;97784.38;5067982;28;20532;-80
2022/08/18 08:06:14;;;;;;;26.20;12.80;;;21.20;99.90;;;21.98;100.00;97787.03;5068072;28;20531;-80
2022/08/18 08:08:51;;;;;;;24.20;14.90;;;21.20;99.90;;;22.01;100.00;97789.16;5066531;28;20476;-80
2022/08/18 08:11:44;;;;;;;17.53;14.23;;;21.20;99.90;;;22.08;100.00;97789.69;5067178;28;21045;-80
2022/08/18 08:14:34;;;;;;;16.87;12.73;;;21.20;99.90;;;22.11;100.00;97794.47;5068452;28;20456;-80
2022/08/18 08:17:16;;;;;;;19.37;13.50;;;21.20;99.90;;;22.14;100.00;97793.97;5066492;28;20444;-79
2022/08/18 08:20:17;;;;;;;19.13;13.87;;;21.30;99.90;;;22.18;100.00;97803.00;5066141;28;20582;-80
2022/08/18 08:23:04;;;;;;;14.30;11.10;;;21.30;99.90;;;22.24;100.00;97815.28;5065568;28;20460;-79
2022/08/18 08:25:51;;;;;;;21.07;15.00;;;21.30;99.90;;;22.26;100.00;97810.47;5065985;28;20495;-80
2022/08/18 08:28:42;;;;;;;24.40;14.67;;;21.40;99.90;;;22.32;100.00;97805.94;5067492;28;20485;-80
2022/08/18 08:31:24;;;;;;;20.27;14.33;;;21.40;99.90;;;22.34;100.00;97812.59;5066976;28;20441;-80
2022/08/18 08:34:14;;;;;;;23.10;16.70;;;21.50;99.90;;;22.38;100.00;97810.19;5067983;28;20545;-80
2022/08/18 08:36:46;;;;;;;22.87;15.63;;;21.50;99.90;;;22.39;100.00;97809.91;5067852;28;20526;-80
2022/08/18 08:39:25;;;;;;;28.20;17.70;;;21.50;99.90;;;22.37;100.00;97805.91;5066527;28;20440;-80
2022/08/18 08:41:59;;;;;;;22.63;17.70;;;21.40;99.90;;;22.40;100.00;97816.03;5065789;28;20440;-81
2022/08/18 08:44:59;;;;;;;16.50;11.70;;;21.40;99.90;;;22.43;100.00;97818.97;5067117;28;20571;-80
2022/08/18 08:47:36;;;;;;;21.10;15.57;;;21.50;99.90;;;22.43;100.00;97818.97;5068391;28;20479;-80
2022/08/18 08:50:14;;;;;;;23.30;17.43;;;21.50;99.90;;;22.40;100.00;97818.72;5066446;28;20466;-80
2022/08/18 08:52:50;;;;;;;22.90;15.77;;;21.50;99.90;;;22.38;100.00;97827.00;5066346;28;20498;-80
2022/08/18 08:55:29;;;;;;;24.07;17.70;;;21.50;99.90;;;22.35;100.00;97822.16;5067624;28;20564;-80
2022/08/18 08:58:20;;;;;;;22.90;16.23;;;21.50;99.90;;;22.32;100.00;97825.38;5063203;28;20934;-80
2022/08/18 09:00:56;;;;;;;20.50;14.83;;;21.50;99.90;;;22.37;100.00;97825.38;5065300;28;20841;-80
2022/08/18 09:03:45;;;;;;;20.87;13.87;;;21.60;99.90;;;22.40;100.00;97834.69;5066023;28;20946;-80
2022/08/18 09:06:36;;;;;;;18.10;12.07;;;21.60;99.90;;;22.44;100.00;97831.25;5065898;28;20583;-80
2022/08/18 09:10:01;;;;;;;20.17;15.33;;;21.70;99.90;;;22.45;100.00;97827.50;5065806;28;20437;-80
2022/08/18 09:12:57;;;;;;;19.07;13.40;;;21.70;99.90;;;22.52;100.00;97837.91;5065556;28;20966;-79
2022/08/18 09:16:03;;;;;;;22.17;14.17;;;21.70;99.90;;;22.53;100.00;97842.94;5067921;28;20476;-80
2022/08/18 09:19:11;;;;;;;26.00;18.60;;;21.70;99.90;;;22.54;100.00;97847.22;5064402;28;20476;-80
2022/08/18 09:21:49;;;;;;;28.53;19.60;;;21.70;99.90;;;22.53;100.00;97840.28;5065382;28;20452;-80
2022/08/18 09:24:27;;;;;;;27.27;18.00;;;21.70;99.90;;;22.54;100.00;97836.56;5065886;28;20460;-80
2022/08/18 09:27:30;;;;;;;22.90;15.80;;;21.70;99.90;;;22.64;100.00;97840.25;5065257;28;20504;-80
2022/08/18 09:30:45;;;;;;;25.13;18.03;;;21.70;99.90;;;22.69;100.00;97842.97;5067341;28;20472;-80
2022/08/18 09:33:46;;;;;;;22.23;15.40;;;21.80;99.90;;;22.73;100.00;97838.69;5064380;28;20445;-80
2022/08/18 09:36:53;;;;;;;28.40;19.00;;;21.90;99.90;;;22.79;100.00;97832.28;5065115;28;20536;-80
2022/08/18 09:42:36;;;;;;;21.40;14.70;;;22.00;99.90;;;22.95;100.00;97829.28;5064500;28;20470;-80
2022/08/18 09:45:58;;;;;;;25.33;13.03;;;22.00;99.90;;;23.02;100.00;97826.31;5065078;28;20488;-80
2022/08/18 09:48:34;;;;;;;19.90;15.00;;;22.20;99.90;;;23.05;100.00;97825.78;5060943;28;20535;-80
2022/08/18 09:51:36;;;;;;;23.80;16.10;;;22.20;99.90;;;23.15;100.00;97822.28;5065543;28;20451;-80
2022/08/18 09:54:17;;;;;;;24.30;15.87;;;22.40;99.90;;;23.20;100.00;97815.06;5064506;28;20837;-80
2022/08/18 09:57:23;;;;;;;27.10;17.70;;;22.50;99.90;;;23.21;100.00;97815.88;5064050;28;20923;-80
2022/08/18 10:00:27;;;;;;;20.13;15.57;;;22.50;99.60;;;23.25;100.00;97808.91;5060722;28;20489;-80
2022/08/18 10:03:24;;;;;;;20.17;14.00;;;22.50;99.70;;;23.30;100.00;97801.66;5065193;28;20483;-80
2022/08/18 10:06:17;;;;;;;26.70;15.80;;;22.60;99.50;;;23.30;100.00;97791.00;5065828;28;20998;-80
2022/08/18 10:09:22;;;;;;;20.00;13.73;;;22.60;99.40;;;23.36;100.00;97784.53;5066521;28;20506;-80
2022/08/18 10:12:43;;;;;;;26.00;16.90;;;22.60;99.50;;;23.37;100.00;97785.34;5065476;28;20445;-80
2022/08/18 10:15:28;;;;;;;17.63;14.33;;;22.50;99.30;;;23.45;100.00;97790.16;5046761;28;20452;-80
2022/08/18 10:18:32;;;;;;;24.33;15.67;;;22.70;99.40;;;23.53;100.00;97785.00;5064381;28;20484;-80
2022/08/18 10:21:17;;;;;;;18.73;15.07;;;22.70;99.50;;;23.60;100.00;97783.94;5056069;28;20444;-80
2022/08/18 10:24:19;;;;;;;28.27;17.50;;;22.80;99.70;;;23.55;100.00;97768.72;5065997;28;20467;-79
2022/08/18 10:27:12;;;;;;;20.83;14.97;;;22.80;98.80;;;23.62;100.00;97758.53;5065375;28;21444;-80
2022/08/18 10:29:59;;;;;;;25.83;17.67;;;22.80;98.70;;;23.62;100.00;97755.06;5064376;28;20483;-80
2022/08/18 10:32:45;;;;;;;21.73;16.30;;;22.80;98.50;;;23.64;100.00;97761.72;5064675;28;20472;-80
2022/08/18 10:36:08;;;;;;;22.43;16.37;;;22.90;98.40;;;23.63;99.75;97768.16;5065448;28;20890;-80
2022/08/18 10:38:52;;;;;;;27.50;15.70;;;22.80;98.20;;;23.67;98.69;97768.38;5065180;28;20473;-81
2022/08/18 10:41:29;;;;;;;21.57;13.97;;;22.90;98.20;;;23.69;98.79;97761.69;5063308;28;20523;-80
2022/08/18 10:44:02;;;;;;;14.53;12.00;;;22.80;98.10;;;23.75;98.26;97754.44;5064520;28;20451;-80
2022/08/18 10:46:53;;;;;;;18.20;13.50;;;22.80;98.20;;;23.86;98.96;97758.63;5063914;28;20595;-80
2022/08/18 10:49:30;;;;;;;20.53;15.13;;;23.00;98.80;;;23.88;99.31;97759.91;5063878;28;20460;-79
2022/08/18 10:52:51;;;;;;;16.80;12.43;;;23.20;98.60;;;23.97;99.59;97754.78;5064076;28;20472;-80
2022/08/18 10:55:50;;;;;;;19.77;12.67;;;23.10;98.30;;;24.07;97.17;97760.03;5053032;28;20484;-80
2022/08/18 10:58:44;;;;;;;22.10;13.50;;;23.40;97.90;;;24.13;95.24;97766.16;5063771;28;20436;-80
2022/08/18 11:01:43;;;;;;;19.37;13.83;;;23.40;97.50;;;24.16;94.49;97755.72;5060114;28;20469;-78
2022/08/18 11:04:29;;;;;;;15.47;11.43;;;23.50;97.40;;;24.17;92.71;97767.19;5062528;28;20456;-78
2022/08/18 11:07:13;;;;;;;18.90;12.10;;;23.40;96.90;;;24.14;92.57;97773.09;5062761;28;20538;-80
2022/08/18 11:09:49;;;;;;;15.47;11.77;;;23.50;97.00;;;24.19;92.91;97781.91;5061992;28;20468;-80
2022/08/18 11:13:00;;;;;;;12.43;10.27;;;23.50;97.10;;;24.24;93.38;97795.19;5062363;28;20482;-80
2022/08/18 11:15:56;;;;;;;15.00;12.03;;;23.40;97.10;;;24.26;93.08;97798.38;5063102;28;20866;-80